This is the latest recevied weather packets stored in our database for station/object SR8NGO-1. If no packets are shown the sender has not sent any weather packets the latest 1 day(s).
| Time | Temp. | Humidity | Pressure | Rain* | Wind** | Luminosity | Snow |
|---|---|---|---|---|---|---|---|
| 1777972367 | 30° C | 37% | 1000.9 hPa | 137.92 mm | 1.79 m/s, 213° | - | - |
| 1777972127 | 28.89° C | 36% | 1000.9 hPa | 137.92 mm | 5.36 m/s, 190° | - | - |
| 1777971887 | 30° C | 36% | 1000.9 hPa | 137.92 mm | 4.02 m/s, 224° | - | - |
| 1777971647 | 27.78° C | 36% | 1001 hPa | 137.92 mm | 4.47 m/s, 184° | - | - |
| 1777971407 | 27.78° C | 36% | 1001 hPa | 137.92 mm | 3.58 m/s, 172° | - | - |
| 1777971167 | 27.78° C | 37% | 1001 hPa | 137.92 mm | 4.47 m/s, 177° | - | - |
| 1777970927 | 28.89° C | 37% | 1001.1 hPa | 137.92 mm | 2.24 m/s, 156° | - | - |
| 1777970687 | 27.78° C | 37% | 1001.1 hPa | 137.92 mm | 2.68 m/s, 184° | - | - |
| 1777970447 | 28.89° C | 37% | 1001.2 hPa | 137.92 mm | 2.24 m/s, 132° | - | - |
| 1777970207 | 27.78° C | 37% | 1001.2 hPa | 137.92 mm | 4.47 m/s, 166° | - | - |
| 1777969967 | 27.78° C | 37% | 1001.2 hPa | 137.92 mm | 6.71 m/s, 177° | - | - |
| 1777969487 | 27.78° C | 37% | 1001.3 hPa | 137.92 mm | 4.92 m/s, 200° | - | - |
| 1777969247 | 27.78° C | 37% | 1001.3 hPa | 137.92 mm | 2.24 m/s, 179° | - | - |
| 1777969007 | 27.78° C | 38% | 1001.4 hPa | 137.92 mm | 5.36 m/s, 179° | - | - |
| 1777968767 | 28.89° C | 38% | 1001.4 hPa | 137.92 mm | 2.24 m/s, 206° | - | - |
| 1777968527 | 27.78° C | 39% | 1001.4 hPa | 137.92 mm | 4.02 m/s, 172° | - | - |
| 1777967807 | 27.22° C | 39% | 1001.4 hPa | 137.92 mm | 3.58 m/s, 179° | - | - |
| 1777967567 | 27.22° C | 39% | 1001.4 hPa | 137.92 mm | 3.13 m/s, 234° | - | - |
| 1777967327 | 27.78° C | 39% | 1001.4 hPa | 137.92 mm | 3.13 m/s, 206° | - | - |
| 1777967087 | 27.22° C | 39% | 1001.4 hPa | 137.92 mm | 4.47 m/s, 201° | - | - |
| 1777966847 | 27.78° C | 39% | 1001.4 hPa | 137.92 mm | 1.34 m/s, 168° | - | - |
| 1777966607 | 26.11° C | 39% | 1001.4 hPa | 137.92 mm | 6.26 m/s, 190° | - | - |
| 1777966367 | 26.11° C | 40% | 1001.4 hPa | 137.92 mm | 4.47 m/s, 207° | - | - |
| 1777966127 | 26.11° C | 40% | 1001.4 hPa | 137.92 mm | 5.81 m/s, 183° | - | - |
| 1777965887 | 26.11° C | 40% | 1001.4 hPa | 137.92 mm | 4.02 m/s, 177° | - | - |
* Rain latest hour (hover to see other rain measurements)
** Current wind speed in m/s (hover to see current wind gust speed)